Time;durP1;ratioP1;P1;durP2;ratioP2;P2;SDS_P1;SDS_P2;PMS_P1;PMS_P2;Temp;Humidity;BMP_temperature;BMP_pressure;BME280_temperature;BME280_humidity;BME280_pressure;Samples;Min_cycle;Max_cycle;Signal;HPM_P1;HPM_P2
2021/06/23 00:01:14;;;;;;;;;37.00;32.00;;;;;14.69;84.15;101494.00;5075222;27;45526;-68
2021/06/23 00:03:39;;;;;;;;;43.67;35.67;;;;;14.64;83.70;101505.94;5072139;27;45665;-69
2021/06/23 00:06:05;;;;;;;;;38.33;34.33;;;;;14.57;84.59;101505.53;5073492;28;45517;-70
2021/06/23 00:08:30;;;;;;;;;37.33;29.33;;;;;14.56;84.41;101503.84;5073960;28;45587;-71
2021/06/23 00:10:56;;;;;;;;;38.33;33.33;;;;;14.53;84.90;101504.09;5074164;27;45446;-73
2021/06/23 00:13:21;;;;;;;;;40.33;34.00;;;;;14.50;85.77;101496.41;5072236;28;45387;-71
2021/06/23 00:15:47;;;;;;;;;43.67;35.67;;;;;14.52;85.23;101495.31;5071912;28;46083;-71
2021/06/23 00:18:12;;;;;;;;;44.67;34.67;;;;;14.52;85.46;101497.13;5073707;27;45696;-66
2021/06/23 00:20:38;;;;;;;;;39.67;33.67;;;;;14.50;85.65;101499.03;5074212;27;45511;-67
2021/06/23 00:23:04;;;;;;;;;43.33;37.33;;;;;14.51;85.78;101501.56;5079915;27;45491;-68
2021/06/23 00:25:29;;;;;;;;;38.33;32.33;;;;;14.53;85.62;101498.81;5087166;27;45669;-67
2021/06/23 00:27:55;;;;;;;;;38.00;32.33;;;;;14.55;85.77;101501.34;5075215;27;45455;-70
2021/06/23 00:30:20;;;;;;;;;42.00;35.00;;;;;14.53;85.12;101496.19;5075393;27;45506;-69
2021/06/23 00:32:46;;;;;;;;;50.67;38.00;;;;;14.50;85.41;101496.41;5071848;28;45506;-68
2021/06/23 00:35:12;;;;;;;;;33.00;31.67;;;;;14.51;85.41;101495.44;5072044;27;46557;-68
2021/06/23 00:37:38;;;;;;;;;42.33;36.00;;;;;14.51;85.50;101496.28;5055127;28;45444;-68
2021/06/23 00:40:05;;;;;;;;;42.00;35.00;;;;;14.51;85.81;101498.91;5071737;27;45839;-69
2021/06/23 00:42:30;;;;;;;;;42.00;35.67;;;;;14.48;85.75;101503.63;5072479;28;45541;-69
2021/06/23 00:44:56;;;;;;;;;45.67;36.67;;;;;14.47;86.00;101504.59;5071121;27;46154;-69
2021/06/23 00:47:26;;;;;;;;;40.33;33.00;;;;;14.47;85.72;101510.69;5075133;28;45509;-69
2021/06/23 00:49:51;;;;;;;;;42.33;32.00;;;;;14.49;85.83;101508.78;5076725;28;45397;-69
2021/06/23 00:52:16;;;;;;;;;40.33;35.67;;;;;14.52;85.66;101503.25;5076926;27;45494;-68
2021/06/23 00:54:50;;;;;;;;;36.67;32.00;;;;;14.54;85.39;101516.34;5058509;28;46164;-69
2021/06/23 00:57:16;;;;;;;;;24.67;22.67;;;;;14.55;85.91;101509.28;5075316;28;45499;-68
2021/06/23 00:59:42;;;;;;;;;41.67;34.67;;;;;14.58;85.85;101504.59;5055210;28;45361;-68
2021/06/23 01:02:09;;;;;;;;;37.67;34.33;;;;;14.58;85.61;101520.44;5057448;28;46213;-67
2021/06/23 01:04:36;;;;;;;;;34.67;30.33;;;;;14.60;85.38;101515.88;5075984;27;47036;-68
2021/06/23 01:07:01;;;;;;;;;39.33;34.67;;;;;14.61;85.37;101514.91;5058648;28;45423;-68
2021/06/23 01:09:26;;;;;;;;;36.67;31.67;;;;;14.58;84.93;101509.88;5075092;28;45715;-69
2021/06/23 01:12:19;;;;;;;;;45.33;32.67;;;;;14.55;85.27;101517.19;5041756;28;45524;-68
2021/06/23 01:14:45;;;;;;;;;37.67;31.67;;;;;14.50;84.78;101512.25;5055544;27;46438;-67
2021/06/23 01:17:10;;;;;;;;;36.00;33.33;;;;;14.47;84.92;101516.00;5068155;27;45498;-67
2021/06/23 01:19:45;;;;;;;;;30.33;29.00;;;;;14.44;85.51;101510.94;5084454;27;45387;-68
2021/06/23 01:22:22;;;;;;;;;35.00;31.67;;;;;14.44;85.01;101521.53;5081584;27;45426;-69
2021/06/23 01:24:49;;;;;;;;;36.67;32.67;;;;;14.40;85.31;101513.94;5077426;27;45441;-68
2021/06/23 01:27:15;;;;;;;;;42.67;33.67;;;;;14.33;84.92;101511.78;5077386;28;45428;-69
2021/06/23 01:29:40;;;;;;;;;42.33;34.00;;;;;14.30;85.59;101506.72;5075667;27;45450;-68
2021/06/23 01:32:06;;;;;;;;;34.67;32.33;;;;;14.29;85.43;101510.34;5079933;27;45410;-66
2021/06/23 01:34:32;;;;;;;;;37.67;32.00;;;;;14.28;85.27;101513.09;5075850;28;46541;-64
2021/06/23 01:36:57;;;;;;;;;39.67;32.67;;;;;14.26;85.52;101521.16;5077268;28;45384;-66
2021/06/23 01:39:23;;;;;;;;;37.00;32.00;;;;;14.25;85.95;101522.09;5077139;27;45457;-66
2021/06/23 01:41:48;;;;;;;;;35.33;30.67;;;;;14.26;86.20;101525.56;5077822;28;45321;-65
2021/06/23 01:44:13;;;;;;;;;39.67;32.33;;;;;14.26;85.94;101526.44;5081803;27;46177;-67
2021/06/23 01:46:39;;;;;;;;;35.67;31.67;;;;;14.24;85.92;101525.69;5087602;27;45475;-64
2021/06/23 01:49:04;;;;;;;;;44.00;33.00;;;;;14.25;86.06;101522.09;5076077;27;45528;-67
2021/06/23 01:51:30;;;;;;;;;39.67;32.33;;;;;14.22;85.48;101522.34;5077527;27;45263;-65
2021/06/23 01:53:55;;;;;;;;;41.00;32.67;;;;;14.21;85.85;101519.84;5077203;27;45974;-65
2021/06/23 01:56:21;;;;;;;;;41.00;34.00;;;;;14.21;85.80;101517.19;5077236;27;45492;-66
2021/06/23 01:58:46;;;;;;;;;37.00;32.00;;;;;14.21;86.03;101509.25;5079251;27;45681;-67
2021/06/23 02:01:20;;;;;;;;;41.00;34.00;;;;;14.19;85.59;101512.00;5081522;27;45500;-66
2021/06/23 02:03:55;;;;;;;;;48.50;37.00;;;;;14.15;85.42;101506.13;5077100;27;46182;-66
2021/06/23 02:06:48;;;;;;;;;42.33;32.67;;;;;14.12;85.79;101506.34;5076671;27;45422;-66
2021/06/23 02:09:31;;;;;;;;;45.00;35.00;;;;;14.11;85.82;101506.47;5076768;28;45315;-66
2021/06/23 02:12:26;;;;;;;;;46.00;34.67;;;;;14.10;85.53;101512.72;5075304;27;46429;-67
2021/06/23 02:15:01;;;;;;;;;33.33;27.67;;;;;14.06;85.85;101506.00;5088428;27;45387;-67
2021/06/23 02:17:27;;;;;;;;;34.67;31.67;;;;;14.10;85.76;101507.44;5079706;27;45521;-67
2021/06/23 02:19:53;;;;;;;;;34.00;31.00;;;;;14.06;85.81;101504.19;5076562;27;45689;-65
2021/06/23 02:22:23;;;;;;;;;45.67;35.33;;;;;14.07;85.95;101508.50;5076622;27;45617;-66
2021/06/23 02:24:52;;;;;;;;;30.00;28.33;;;;;14.07;85.81;101503.22;5075306;28;45474;-66
2021/06/23 02:27:17;;;;;;;;;44.67;35.33;;;;;14.08;85.92;101510.19;5055731;28;45525;-65
2021/06/23 02:29:44;;;;;;;;;39.67;35.33;;;;;14.08;86.32;101506.72;5056749;28;45371;-66
2021/06/23 02:32:12;;;;;;;;;37.33;31.33;;;;;14.12;86.42;101505.53;5084032;27;45527;-66
2021/06/23 02:34:39;;;;;;;;;36.33;30.67;;;;;14.15;86.09;101510.56;5088831;27;45951;-66
2021/06/23 02:37:04;;;;;;;;;39.33;32.67;;;;;14.12;85.90;101510.81;5075222;28;45460;-66
2021/06/23 02:39:30;;;;;;;;;39.00;34.67;;;;;14.11;86.12;101517.03;5075501;27;45511;-66
2021/06/23 02:41:55;;;;;;;;;45.33;34.33;;;;;14.09;86.21;101519.81;5057214;28;45521;-66
2021/06/23 02:44:21;;;;;;;;;40.67;34.67;;;;;14.12;86.21;101518.75;5058026;28;46127;-68
2021/06/23 02:46:46;;;;;;;;;41.67;34.00;;;;;14.18;86.22;101520.91;5074911;28;45449;-68
2021/06/23 02:49:11;;;;;;;;;42.00;34.67;;;;;14.22;85.24;101524.13;5075154;27;45532;-67
2021/06/23 02:51:41;;;;;;;;;37.00;33.33;;;;;14.22;85.39;101517.06;5058158;28;45519;-70
2021/06/23 02:54:07;;;;;;;;;41.00;34.00;;;;;14.21;85.97;101522.47;5057477;27;45973;-67
2021/06/23 02:56:33;;;;;;;;;43.67;36.00;;;;;14.21;85.58;101520.66;5074637;27;45510;-67
2021/06/23 02:58:59;;;;;;;;;35.33;28.00;;;;;14.21;85.28;101520.66;5052753;28;45426;-67
2021/06/23 03:01:24;;;;;;;;;42.00;34.00;;;;;14.20;85.65;101518.97;5054187;28;45503;-68
2021/06/23 03:03:49;;;;;;;;;43.00;34.67;;;;;14.21;85.24;101515.38;5055775;28;46175;-67
2021/06/23 03:06:15;;;;;;;;;41.00;34.00;;;;;14.18;85.32;101528.84;5055811;28;45371;-66
2021/06/23 03:08:40;;;;;;;;;34.00;28.67;;;;;14.15;85.25;101524.63;5053883;28;45345;-66
2021/06/23 03:11:06;;;;;;;;;42.00;34.33;;;;;14.16;85.45;101522.81;5054864;28;45217;-67
2021/06/23 03:13:32;;;;;;;;;41.67;32.67;;;;;14.15;85.34;101522.00;5071015;28;45402;-63
2021/06/23 03:15:57;;;;;;;;;39.67;32.33;;;;;14.16;85.59;101517.53;5055681;28;45326;-63
2021/06/23 03:18:23;;;;;;;;;34.33;28.67;;;;;14.15;85.41;101510.56;5074387;27;45532;-65
2021/06/23 03:20:48;;;;;;;;;34.33;29.33;;;;;14.15;85.02;101510.56;5075104;27;45448;-67
2021/06/23 03:23:14;;;;;;;;;33.67;30.00;;;;;14.13;85.21;101509.84;5076124;28;46131;-67
2021/06/23 03:25:39;;;;;;;;;37.33;26.67;;;;;14.13;85.71;101507.22;5075945;27;45458;-67
2021/06/23 03:28:05;;;;;;;;;39.00;30.67;;;;;14.13;85.44;101507.22;5075580;27;45644;-67
2021/06/23 03:30:30;;;;;;;;;32.00;29.33;;;;;14.13;86.04;101512.50;5074565;27;45358;-67
2021/06/23 03:32:56;;;;;;;;;32.33;26.33;;;;;14.14;85.93;101509.72;5075821;28;46547;-67
2021/06/23 03:35:21;;;;;;;;;34.33;31.33;;;;;14.17;85.68;101514.78;5074570;27;45438;-67
2021/06/23 03:37:47;;;;;;;;;29.00;25.33;;;;;14.16;85.36;101507.78;5074931;27;45344;-66
2021/06/23 03:40:13;;;;;;;;;29.50;25.00;;;;;14.17;85.50;101519.22;5074611;28;45503;-67
2021/06/23 03:42:39;;;;;;;;;33.00;27.67;;;;;14.17;85.63;101516.59;5053171;28;47141;-66
2021/06/23 03:45:05;;;;;;;;;28.00;28.00;;;;;14.16;85.24;101523.66;5054145;28;45507;-66
2021/06/23 03:47:30;;;;;;;;;28.67;25.00;;;;;14.15;85.20;101521.13;5054274;28;45428;-67
2021/06/23 03:49:55;;;;;;;;;28.67;26.67;;;;;14.12;85.58;101524.03;5071844;27;45319;-66
2021/06/23 03:52:21;;;;;;;;;28.33;25.67;;;;;14.10;85.72;101525.94;5075675;27;45411;-67
2021/06/23 03:54:46;;;;;;;;;30.00;26.33;;;;;14.10;85.33;101520.63;5056845;28;45388;-66
2021/06/23 03:57:12;;;;;;;;;34.33;27.33;;;;;14.08;85.75;101526.03;5074109;28;45398;-66
2021/06/23 03:59:37;;;;;;;;;26.67;22.00;;;;;14.08;86.02;101525.22;5074793;27;45406;-66
2021/06/23 04:02:03;;;;;;;;;31.67;24.00;;;;;14.07;85.63;101534.94;5075727;27;45583;-66
2021/06/23 04:04:29;;;;;;;;;24.00;22.33;;;;;14.02;85.22;101529.16;5075438;27;45270;-67
2021/06/23 04:06:54;;;;;;;;;26.33;21.33;;;;;13.99;85.39;101532.03;5075052;27;45365;-66
2021/06/23 04:09:20;;;;;;;;;28.33;23.00;;;;;13.95;85.29;101526.13;5073214;27;45231;-67
2021/06/23 04:11:45;;;;;;;;;31.33;25.67;;;;;13.97;85.42;101526.88;5053705;28;46303;-67
2021/06/23 04:14:11;;;;;;;;;29.00;23.67;;;;;13.98;85.06;101531.19;5062455;28;45417;-67
2021/06/23 04:16:36;;;;;;;;;30.33;27.67;;;;;13.97;85.34;101539.22;5077788;27;45295;-67
2021/06/23 04:19:01;;;;;;;;;27.33;24.33;;;;;13.96;85.04;101533.09;5088500;27;45482;-67
2021/06/23 04:21:27;;;;;;;;;25.33;24.00;;;;;13.97;85.34;101537.44;5077046;27;46039;-67
2021/06/23 04:23:52;;;;;;;;;26.67;24.00;;;;;13.98;85.84;101541.75;5075817;27;45525;-67
2021/06/23 04:26:18;;;;;;;;;25.33;23.00;;;;;14.00;85.60;101547.75;5078729;27;45500;-68
2021/06/23 04:28:43;;;;;;;;;26.00;23.33;;;;;14.00;85.42;101549.56;5078997;27;45413;-66
2021/06/23 04:31:08;;;;;;;;;29.00;27.00;;;;;14.01;85.61;101556.50;5078704;27;45708;-66
2021/06/23 04:33:34;;;;;;;;;25.67;22.00;;;;;14.05;85.92;101551.84;5078876;28;45293;-67
2021/06/23 04:35:59;;;;;;;;;24.67;22.00;;;;;14.06;86.04;101556.19;5078988;27;45436;-67
2021/06/23 04:38:25;;;;;;;;;26.67;24.67;;;;;14.05;85.79;101554.50;5079406;27;45400;-67
2021/06/23 04:40:50;;;;;;;;;31.00;27.67;;;;;14.03;85.42;101554.63;5078732;28;45958;-67
2021/06/23 04:43:16;;;;;;;;;24.67;21.00;;;;;14.01;85.19;101549.44;5078696;27;45416;-67
2021/06/23 04:45:41;;;;;;;;;27.33;24.33;;;;;14.01;85.21;101552.09;5078183;28;45216;-67
2021/06/23 04:48:07;;;;;;;;;29.00;23.00;;;;;14.03;85.75;101557.25;5077332;28;45304;-67
2021/06/23 04:50:33;;;;;;;;;25.00;24.33;;;;;14.07;85.93;101555.22;5078338;27;45580;-67
2021/06/23 04:52:58;;;;;;;;;27.00;27.00;;;;;14.09;85.38;101553.28;5078446;27;45437;-66
2021/06/23 04:55:24;;;;;;;;;24.67;21.67;;;;;14.08;85.53;101556.91;5078953;27;45429;-66
2021/06/23 04:57:49;;;;;;;;;29.00;25.33;;;;;14.08;85.30;101556.91;5078535;28;46072;-67
2021/06/23 05:00:16;;;;;;;;;26.67;20.67;;;;;14.08;85.27;101556.91;5077956;27;45465;-67
2021/06/23 05:02:41;;;;;;;;;30.00;26.33;;;;;14.08;85.48;101557.75;5076281;28;45482;-66
2021/06/23 05:05:07;;;;;;;;;28.67;23.67;;;;;14.11;85.70;101557.50;5078432;28;45584;-66
2021/06/23 05:07:32;;;;;;;;;27.67;24.00;;;;;14.12;85.57;101555.72;5078049;27;45741;-67
2021/06/23 05:09:58;;;;;;;;;25.00;20.33;;;;;14.15;86.01;101560.75;5076660;27;45674;-67
2021/06/23 05:12:27;;;;;;;;;34.00;22.67;;;;;14.17;85.64;101558.84;5078128;27;46103;-67
2021/06/23 05:14:52;;;;;;;;;29.33;21.33;;;;;14.19;85.72;101565.72;5078229;27;45510;-66
2021/06/23 05:17:18;;;;;;;;;25.33;17.67;;;;;14.18;85.71;101563.19;5078313;27;45332;-66
2021/06/23 05:19:44;;;;;;;;;25.00;22.67;;;;;14.17;85.08;101564.97;5078088;27;46527;-67
2021/06/23 05:22:10;;;;;;;;;21.33;16.00;;;;;14.16;85.50;101573.03;5059587;27;45409;-66
2021/06/23 05:24:39;;;;;;;;;20.67;19.00;;;;;14.17;85.47;101580.00;5078331;27;45445;-66
2021/06/23 05:27:06;;;;;;;;;21.67;18.00;;;;;14.18;85.25;101573.75;5076633;28;45541;-63
2021/06/23 05:29:31;;;;;;;;;18.00;16.67;;;;;14.19;85.35;101581.56;5077647;27;46463;-63
2021/06/23 05:31:56;;;;;;;;;21.67;19.00;;;;;14.19;85.06;101576.28;5075348;27;45528;-64
2021/06/23 05:34:22;;;;;;;;;21.67;19.00;;;;;14.19;85.30;101575.41;5076266;27;45563;-64
2021/06/23 05:36:47;;;;;;;;;24.33;18.00;;;;;14.19;85.36;101581.56;5077137;27;45488;-63
2021/06/23 05:39:13;;;;;;;;;25.67;22.00;;;;;14.20;85.45;101579.75;5077708;27;46306;-63
2021/06/23 05:41:38;;;;;;;;;29.33;21.67;;;;;14.20;85.43;101574.47;5075334;27;45378;-64
2021/06/23 05:44:04;;;;;;;;;19.00;17.00;;;;;14.20;85.36;101577.09;5077209;27;45214;-63
2021/06/23 05:46:29;;;;;;;;;14.33;14.33;;;;;14.21;85.41;101584.09;5076573;28;45367;-65
2021/06/23 05:48:55;;;;;;;;;23.33;19.33;;;;;14.21;85.38;101584.09;5075904;27;46233;-63
2021/06/23 05:51:20;;;;;;;;;22.67;19.67;;;;;14.22;84.72;101582.28;5077083;27;45787;-63
2021/06/23 05:53:45;;;;;;;;;20.33;16.33;;;;;14.18;84.42;101573.75;5076531;28;45694;-64
2021/06/23 05:56:13;;;;;;;;;28.00;22.00;;;;;14.15;84.88;101589.81;5077551;27;45871;-64
2021/06/23 05:58:39;;;;;;;;;23.33;21.67;;;;;14.07;84.78;101581.66;5077127;28;46260;-65
2021/06/23 06:01:05;;;;;;;;;21.67;20.00;;;;;14.06;84.58;101588.72;5075592;27;45398;-64
2021/06/23 06:03:31;;;;;;;;;22.33;21.67;;;;;14.06;84.15;101598.44;5077457;27;45384;-64
2021/06/23 06:05:56;;;;;;;;;21.00;21.00;;;;;14.01;84.57;101597.00;5076583;27;45614;-64
2021/06/23 06:08:22;;;;;;;;;19.00;19.00;;;;;14.00;84.87;101603.25;5077252;28;46306;-63
2021/06/23 06:10:48;;;;;;;;;22.00;19.00;;;;;14.01;85.02;101609.34;5076968;27;45677;-64
2021/06/23 06:13:14;;;;;;;;;21.67;20.00;;;;;14.01;85.08;101618.13;5077508;27;45399;-64
2021/06/23 06:15:39;;;;;;;;;24.33;22.00;;;;;14.01;83.58;101612.84;5077238;27;45259;-65
2021/06/23 06:18:05;;;;;;;;;22.67;19.00;;;;;13.97;83.57;101613.19;5076959;27;45386;-65
2021/06/23 06:20:31;;;;;;;;;25.33;21.33;;;;;13.95;83.33;101626.50;5076676;27;45529;-64
2021/06/23 06:22:56;;;;;;;;;21.00;18.33;;;;;13.92;83.86;101629.38;5077172;27;45445;-64
2021/06/23 06:25:22;;;;;;;;;25.33;22.33;;;;;13.87;83.15;101623.59;5077261;27;45409;-65
2021/06/23 06:27:47;;;;;;;;;32.00;26.00;;;;;13.84;82.90;101629.94;5076552;27;45692;-64
2021/06/23 06:30:13;;;;;;;;;25.33;22.67;;;;;13.82;83.76;101628.38;5076401;27;45392;-64
2021/06/23 06:32:39;;;;;;;;;32.67;28.67;;;;;13.83;84.33;101622.13;5076175;27;45520;-63
2021/06/23 06:35:05;;;;;;;;;29.67;26.67;;;;;13.82;84.06;101639.78;5076549;28;45534;-63
2021/06/23 06:37:30;;;;;;;;;26.67;24.00;;;;;13.82;83.61;101631.03;5076482;27;46746;-63
2021/06/23 06:39:56;;;;;;;;;34.33;27.00;;;;;13.79;84.08;101629.44;5076783;27;45255;-64
2021/06/23 06:42:22;;;;;;;;;32.33;27.33;;;;;13.81;84.19;101635.44;5093757;27;45383;-65
2021/06/23 06:44:47;;;;;;;;;34.00;29.33;;;;;13.82;84.25;101633.66;5081210;27;45462;-65
2021/06/23 06:47:13;;;;;;;;;22.67;21.33;;;;;13.84;84.28;101637.00;5075544;28;45754;-64
2021/06/23 06:49:38;;;;;;;;;33.67;29.33;;;;;13.83;84.11;101632.69;5076835;27;45426;-64
2021/06/23 06:52:04;;;;;;;;;27.67;25.67;;;;;13.87;84.27;101636.81;5076475;27;45449;-65
2021/06/23 06:54:29;;;;;;;;;25.67;25.33;;;;;13.88;84.04;101641.13;5076544;27;45248;-65
2021/06/23 06:56:55;;;;;;;;;26.33;24.33;;;;;13.90;84.03;101639.22;5076263;28;46221;-65
2021/06/23 06:59:20;;;;;;;;;28.00;26.00;;;;;13.97;83.63;101643.09;5075207;27;45474;-64
2021/06/23 07:01:46;;;;;;;;;31.00;28.67;;;;;14.01;83.94;101655.13;5076226;28;45395;-64
2021/06/23 07:04:14;;;;;;;;;23.00;19.00;;;;;14.02;83.81;101651.53;5074515;28;45384;-64
2021/06/23 07:06:39;;;;;;;;;26.67;22.00;;;;;14.01;84.30;101651.63;5075150;27;46069;-65
2021/06/23 07:09:05;;;;;;;;;25.33;24.00;;;;;14.01;83.51;101652.47;5076100;27;45464;-64
2021/06/23 07:11:30;;;;;;;;;33.67;28.33;;;;;14.01;83.37;101649.84;5076359;27;45433;-65
2021/06/23 07:13:56;;;;;;;;;28.33;26.00;;;;;14.02;83.59;101650.66;5076401;27;45417;-64
2021/06/23 07:16:21;;;;;;;;;26.67;22.33;;;;;14.03;83.52;101647.91;5076160;27;45445;-65
2021/06/23 07:18:48;;;;;;;;;24.67;23.00;;;;;14.01;83.73;101651.63;5076234;27;45540;-65
2021/06/23 07:21:18;;;;;;;;;28.67;25.67;;;;;14.01;83.68;101656.91;5076263;27;45462;-64
2021/06/23 07:23:44;;;;;;;;;31.67;23.00;;;;;14.02;83.85;101648.03;5074470;27;45476;-64
2021/06/23 07:26:09;;;;;;;;;33.00;27.67;;;;;14.05;84.18;101653.09;5073973;28;45529;-64
2021/06/23 07:28:53;;;;;;;;;26.00;23.00;;;;;14.12;83.96;101653.47;5075997;27;45366;-65
2021/06/23 07:36:38;;;;;;;;;26.33;23.00;;;;;14.20;83.73;101653.72;5074738;28;45395;-64
2021/06/23 07:39:11;;;;;;;;;28.00;24.67;;;;;14.23;84.12;101655.31;5074461;27;45490;-65
2021/06/23 07:41:39;;;;;;;;;24.00;22.00;;;;;14.28;84.26;101663.72;5075169;27;45489;-63
2021/06/23 07:44:05;;;;;;;;;32.33;26.00;;;;;14.29;83.30;101676.81;5095752;27;45539;-66
2021/06/23 07:46:35;;;;;;;;;33.00;25.67;;;;;14.24;83.62;101668.41;5075165;27;45204;-68
2021/06/23 07:49:01;;;;;;;;;35.00;30.67;;;;;14.21;83.19;101668.63;5074043;28;45715;-68
2021/06/23 07:51:40;;;;;;;;;26.67;24.00;;;;;14.19;84.00;101671.41;5075602;27;45524;-66
2021/06/23 08:03:01;;;;;;;;;38.00;30.00;;;;;14.31;83.93;101668.78;5016771;28;45304;-67
2021/06/23 08:10:48;;;;;;;;;39.33;33.00;;;;;14.28;83.03;101680.41;5013146;28;45490;-66
2021/06/23 08:13:14;;;;;;;;;29.67;27.33;;;;;14.21;82.45;101668.63;4980601;28;45567;-66
2021/06/23 08:15:41;;;;;;;;;26.33;20.67;;;;;14.26;82.85;101673.56;5012500;28;45461;-67
2021/06/23 08:18:07;;;;;;;;;31.33;28.67;;;;;14.27;82.64;101668.19;4998846;28;48198;-67
2021/06/23 08:20:32;;;;;;;;;27.33;24.00;;;;;14.26;82.48;101669.13;5026231;28;45591;-66
2021/06/23 08:22:58;;;;;;;;;25.33;21.33;;;;;14.30;82.90;101661.84;5014729;28;45710;-68
2021/06/23 08:25:24;;;;;;;;;37.00;30.33;;;;;14.35;82.13;101672.91;5009621;28;45395;-67
2021/06/23 08:27:50;;;;;;;;;30.00;25.33;;;;;14.38;82.92;101669.19;5009003;28;46066;-67
2021/06/23 08:30:16;;;;;;;;;25.33;22.67;;;;;14.43;82.48;101667.03;5035575;27;45417;-67
2021/06/23 08:32:41;;;;;;;;;31.33;29.00;;;;;14.45;82.48;101665.97;5072501;27;45483;-67
2021/06/23 08:35:08;;;;;;;;;30.67;25.67;;;;;14.50;82.02;101673.53;5075559;27;45515;-66
2021/06/23 08:37:34;;;;;;;;;31.67;28.67;;;;;14.54;82.91;101664.41;5072686;28;45491;-69
2021/06/23 08:40:00;;;;;;;;;30.00;25.33;;;;;14.60;81.96;101674.50;5073662;27;45595;-65
2021/06/23 08:42:25;;;;;;;;;35.33;27.67;;;;;14.61;81.22;101670.91;5075149;27;45579;-66
2021/06/23 08:44:51;;;;;;;;;25.67;19.33;;;;;14.62;81.98;101671.75;5073994;27;45532;-67
2021/06/23 08:47:16;;;;;;;;;31.00;26.33;;;;;14.64;82.65;101660.13;5074281;27;45579;-70
2021/06/23 08:49:43;;;;;;;;;29.67;27.00;;;;;14.76;82.70;101662.78;5075177;27;45449;-70
2021/06/23 08:52:09;;;;;;;;;31.00;26.33;;;;;14.83;82.61;101664.84;5075678;27;45390;-68
2021/06/23 08:54:34;;;;;;;;;31.00;24.00;;;;;14.87;81.51;101665.47;5056501;28;45618;-66
2021/06/23 08:57:01;;;;;;;;;29.00;26.67;;;;;14.94;81.91;101671.09;5073615;28;46601;-65
2021/06/23 08:59:26;;;;;;;;;27.67;24.33;;;;;14.94;80.74;101677.22;5074382;27;45552;-66
2021/06/23 09:01:52;;;;;;;;;37.00;29.67;;;;;14.92;81.06;101673.00;5074611;28;45492;-68
2021/06/23 09:04:18;;;;;;;;;27.67;23.67;;;;;14.91;80.78;101672.19;5073559;27;45459;-69
2021/06/23 09:06:48;;;;;;;;;29.33;25.33;;;;;14.93;80.95;101672.06;5074645;27;45425;-67
2021/06/23 09:09:19;;;;;;;;;21.00;20.33;;;;;14.96;81.49;101677.97;5076938;27;45451;-66
2021/06/23 09:11:45;;;;;;;;;29.33;25.33;;;;;14.97;81.63;101677.00;5083359;27;45268;-67
2021/06/23 09:14:11;;;;;;;;;34.33;29.67;;;;;15.00;80.52;101675.94;5077505;27;45514;-66
2021/06/23 09:16:37;;;;;;;;;27.33;23.00;;;;;15.01;79.91;101683.75;5077957;27;45654;-67
2021/06/23 09:19:25;;;;;;;;;20.67;20.67;;;;;15.02;81.22;101679.28;5077917;27;45497;-67
2021/06/23 09:21:50;;;;;;;;;29.00;25.67;;;;;15.07;80.95;101676.28;5062443;27;45567;-66
2021/06/23 09:24:18;;;;;;;;;26.00;25.67;;;;;15.08;80.87;101684.09;5078645;27;45668;-67
2021/06/23 09:26:43;;;;;;;;;32.33;28.67;;;;;15.02;80.71;101682.78;5075997;28;47074;-67
2021/06/23 09:29:16;;;;;;;;;27.00;22.33;;;;;14.99;81.52;101680.34;5077815;27;45454;-67
2021/06/23 09:32:03;;;;;;;;;31.00;25.00;;;;;15.06;81.54;101679.88;5077541;27;45435;-67
2021/06/23 09:34:34;;;;;;;;;24.67;21.00;;;;;15.15;81.59;101677.38;5059168;28;45410;-66
2021/06/23 09:36:59;;;;;;;;;33.67;27.67;;;;;15.20;80.40;101687.59;5077326;27;45585;-66
2021/06/23 09:39:29;;;;;;;;;30.67;28.00;;;;;15.15;80.91;101680.03;5077374;27;45628;-66
2021/06/23 09:41:55;;;;;;;;;34.00;30.33;;;;;15.05;80.73;101670.25;5076604;27;45657;-66
2021/06/23 09:44:22;;;;;;;;;31.67;30.67;;;;;15.01;80.74;101678.44;5076367;28;45392;-68
2021/06/23 09:46:49;;;;;;;;;34.67;30.00;;;;;15.00;81.70;101682.06;5076439;28;45374;-66
2021/06/23 09:49:16;;;;;;;;;36.33;30.67;;;;;15.06;81.80;101682.53;5077562;27;45468;-67
2021/06/23 09:51:58;;;;;;;;;30.67;28.00;;;;;15.11;81.62;101677.72;5077664;27;45296;-67
2021/06/23 09:54:29;;;;;;;;;27.33;23.33;;;;;15.15;81.56;101682.66;5077766;27;45557;-66
2021/06/23 09:57:08;;;;;;;;;29.67;28.00;;;;;15.15;81.58;101681.81;5055539;27;46288;-67
2021/06/23 09:59:38;;;;;;;;;26.00;24.00;;;;;15.18;81.58;101679.75;5096844;27;45527;-66
2021/06/23 10:02:04;;;;;;;;;30.00;27.33;;;;;15.26;81.94;101691.56;5096367;27;45457;-65
2021/06/23 10:04:35;;;;;;;;;28.33;25.00;;;;;15.32;81.58;101691.91;5097110;27;45213;-66
2021/06/23 10:07:05;;;;;;;;;31.67;26.00;;;;;15.32;81.10;101683.97;5097204;27;45521;-66
2021/06/23 10:09:32;;;;;;;;;33.33;28.00;;;;;15.31;81.22;101692.03;5097214;27;45264;-66
2021/06/23 10:12:08;;;;;;;;;28.67;28.00;;;;;15.24;81.29;101689.00;5095939;27;45356;-67
2021/06/23 10:14:45;;;;;;;;;26.67;23.67;;;;;15.22;81.08;101690.97;5097160;27;45494;-67
2021/06/23 10:17:10;;;;;;;;;29.67;27.33;;;;;15.20;81.05;101692.88;5095952;27;46178;-66
2021/06/23 10:19:36;;;;;;;;;35.00;30.67;;;;;15.19;81.62;101691.19;5078509;27;45390;-68
2021/06/23 10:22:06;;;;;;;;;29.00;25.00;;;;;15.22;81.58;101693.59;5078882;27;45902;-66
2021/06/23 10:24:31;;;;;;;;;26.00;24.00;;;;;15.24;81.38;101693.47;5097481;27;45641;-66
2021/06/23 10:26:57;;;;;;;;;26.67;23.00;;;;;15.27;81.75;101694.09;5078578;27;46094;-66
2021/06/23 10:29:27;;;;;;;;;29.00;25.33;;;;;15.30;81.27;101688.53;5097018;27;45741;-66
2021/06/23 10:31:53;;;;;;;;;31.00;28.67;;;;;15.38;81.24;101697.69;5080622;27;45325;-66
2021/06/23 10:34:19;;;;;;;;;27.00;22.33;;;;;15.41;81.27;101687.72;5058813;28;45575;-67
2021/06/23 10:36:45;;;;;;;;;26.00;25.33;;;;;15.45;81.68;101680.34;5076835;27;46088;-67
2021/06/23 10:39:12;;;;;;;;;31.00;28.00;;;;;15.59;81.04;101688.00;5076523;27;45363;-67
2021/06/23 10:41:40;;;;;;;;;31.67;27.00;;;;;15.67;80.93;101690.03;5059111;28;45485;-66
2021/06/23 10:44:17;;;;;;;;;32.00;27.67;;;;;15.66;79.65;101683.91;5077170;27;45540;-66
2021/06/23 10:46:44;;;;;;;;;33.67;30.00;;;;;15.71;80.33;101690.66;5076234;27;45504;-66
2021/06/23 10:49:11;;;;;;;;;30.33;27.00;;;;;15.79;80.43;101691.72;5076479;27;45382;-66
2021/06/23 10:51:36;;;;;;;;;31.67;25.67;;;;;15.87;79.79;101695.56;5075353;27;45645;-66
2021/06/23 10:54:31;;;;;;;;;27.67;25.33;;;;;15.90;79.91;101701.47;5075959;27;45480;-66
2021/06/23 10:56:56;;;;;;;;;30.33;23.67;;;;;15.92;79.74;101698.69;5076428;27;46494;-67
2021/06/23 10:59:34;;;;;;;;;33.00;28.33;;;;;15.92;79.79;101710.13;5075935;27;45493;-69
2021/06/23 11:02:10;;;;;;;;;28.67;28.00;;;;;15.89;80.13;101707.72;5075150;27;45327;-67
2021/06/23 11:04:57;;;;;;;;;25.67;25.00;;;;;15.86;80.27;101705.34;5076330;27;45392;-67
2021/06/23 11:07:41;;;;;;;;;35.33;26.00;;;;;15.84;79.96;101709.94;5075791;28;46352;-67
2021/06/23 11:10:35;;;;;;;;;35.67;30.00;;;;;15.81;80.36;101712.81;5075741;27;45412;-66
2021/06/23 11:13:05;;;;;;;;;27.33;22.33;;;;;15.77;79.64;101716.66;5033817;28;45417;-65
2021/06/23 11:15:30;;;;;;;;;32.33;27.67;;;;;15.73;80.11;101717.88;5033481;28;45627;-66
2021/06/23 11:18:18;;;;;;;;;29.00;24.67;;;;;15.66;80.09;101720.16;5031031;28;45382;-66
2021/06/23 11:20:45;;;;;;;;;29.00;28.00;;;;;15.67;80.81;101725.34;5018823;28;45600;-65
2021/06/23 11:23:45;;;;;;;;;30.33;28.33;;;;;15.66;80.19;101736.88;5032926;28;45499;-67
2021/06/23 11:26:22;;;;;;;;;27.00;24.00;;;;;15.66;80.28;101731.59;5033150;28;45453;-66
2021/06/23 11:28:58;;;;;;;;;29.33;25.67;;;;;15.67;80.75;101729.78;5032606;28;45502;-66
2021/06/23 11:31:50;;;;;;;;;28.33;21.00;;;;;15.68;80.30;101729.69;5009473;28;45393;-65